createdAt,value
2023-02-19T00:00:25.120Z,1.60
2023-02-19T00:03:27.133Z,1.80
2023-02-19T00:06:29.446Z,1.73
2023-02-19T00:09:30.914Z,1.67
2023-02-19T00:12:32.397Z,1.77
2023-02-19T00:15:33.880Z,1.70
2023-02-19T00:18:35.555Z,1.60
2023-02-19T00:21:36.998Z,1.50
2023-02-19T00:24:38.502Z,1.80
2023-02-19T00:27:39.965Z,1.70
2023-02-19T00:30:41.455Z,1.60
2023-02-19T00:33:42.963Z,1.80
2023-02-19T00:36:44.519Z,1.50
2023-02-19T00:39:45.971Z,1.77
2023-02-19T00:42:47.426Z,1.60
2023-02-19T00:45:48.922Z,1.50
2023-02-19T00:48:50.621Z,1.80
2023-02-19T00:51:52.413Z,1.70
2023-02-19T00:54:53.870Z,1.50
2023-02-19T00:57:55.334Z,1.53
2023-02-19T01:00:56.894Z,1.77
2023-02-19T01:03:58.406Z,1.55
2023-02-19T01:06:59.910Z,1.70
2023-02-19T01:10:01.405Z,1.50
2023-02-19T01:13:02.857Z,1.60
2023-02-19T01:16:14.423Z,1.50
2023-02-19T01:19:15.897Z,2.40
2023-02-19T01:22:17.395Z,2.20
2023-02-19T01:25:18.957Z,2.23
2023-02-19T01:28:20.415Z,2.20
2023-02-19T01:31:23.096Z,2.50
2023-02-19T01:34:24.619Z,2.20
2023-02-19T01:37:26.068Z,2.27
2023-02-19T01:40:27.562Z,2.23
2023-02-19T01:43:29.034Z,1.87
2023-02-19T01:46:32.610Z,2.30
2023-02-19T01:49:37.308Z,2.25
2023-02-19T01:52:38.776Z,1.65
2023-02-19T01:55:40.225Z,1.70
2023-02-19T01:58:41.689Z,1.90
2023-02-19T02:01:43.190Z,2.05
2023-02-19T02:04:44.665Z,1.60
2023-02-19T02:08:04.849Z,2.00
2023-02-19T02:11:06.333Z,1.92
2023-02-19T02:14:07.779Z,1.50
2023-02-19T02:17:28.001Z,1.27
2023-02-19T02:20:54.334Z,1.70
2023-02-19T02:24:12.990Z,1.80
2023-02-19T02:27:55.730Z,1.65
2023-02-19T02:31:02.731Z,1.60
2023-02-19T02:34:07.202Z,1.60
2023-02-19T02:37:08.658Z,1.80
2023-02-19T02:40:10.381Z,1.73
2023-02-19T02:43:12.222Z,1.40
2023-02-19T02:46:15.020Z,1.90
2023-02-19T02:49:20.037Z,1.92
2023-02-19T02:52:40.012Z,1.90
2023-02-19T02:55:43.223Z,1.90
2023-02-19T02:58:44.767Z,1.92
2023-02-19T03:02:14.097Z,2.40
2023-02-19T03:05:39.336Z,2.40
2023-02-19T03:08:43.821Z,1.70
2023-02-19T03:12:14.986Z,1.77
2023-02-19T03:15:34.850Z,1.92
2023-02-19T03:18:54.894Z,1.92
2023-02-19T03:22:00.931Z,1.92
2023-02-19T03:25:28.051Z,2.00
2023-02-19T03:28:49.577Z,2.05
2023-02-19T03:31:53.733Z,1.77
2023-02-19T03:35:16.459Z,1.95
2023-02-19T03:38:20.982Z,2.05
2023-02-19T03:41:35.609Z,2.33
2023-02-19T03:44:55.657Z,2.40
2023-02-19T03:48:35.314Z,2.35
2023-02-19T03:51:45.033Z,2.67
2023-02-19T03:54:48.057Z,2.78
2023-02-19T03:58:01.543Z,2.58
2023-02-19T04:01:13.640Z,2.85
2023-02-19T04:04:32.204Z,4.28
2023-02-19T04:07:35.699Z,4.30
2023-02-19T04:10:37.114Z,4.20
2023-02-19T04:13:51.288Z,4.00
2023-02-19T04:17:01.125Z,5.20
2023-02-19T04:20:03.905Z,3.78
2023-02-19T04:23:05.428Z,4.75
2023-02-19T04:26:07.953Z,4.75
2023-02-19T04:32:11.289Z,3.38
2023-02-19T04:35:12.777Z,3.08
2023-02-19T04:38:14.767Z,3.10
2023-02-19T04:41:16.251Z,3.50
2023-02-19T04:44:17.699Z,3.43
2023-02-19T04:47:19.151Z,3.22
2023-02-19T04:50:21.569Z,3.50
2023-02-19T04:56:24.371Z,2.72
2023-02-19T04:59:25.914Z,1.67
2023-02-19T05:02:27.365Z,2.50
2023-02-19T05:05:28.803Z,2.35
2023-02-19T05:08:30.269Z,3.55
2023-02-19T05:11:31.794Z,2.33
2023-02-19T05:14:33.242Z,2.25
2023-02-19T05:17:34.801Z,1.77
2023-02-19T05:20:36.662Z,2.67
2023-02-19T05:23:38.222Z,3.13
2023-02-19T05:26:39.667Z,2.43
2023-02-19T05:29:41.094Z,2.10
2023-02-19T05:32:42.597Z,1.85
2023-02-19T05:35:44.936Z,2.30
2023-02-19T05:38:46.379Z,2.08
2023-02-19T05:41:47.864Z,1.17
2023-02-19T05:44:49.304Z,1.73
2023-02-19T05:47:50.764Z,1.85
2023-02-19T05:50:52.234Z,1.48
2023-02-19T05:53:54.022Z,1.52
2023-02-19T05:56:55.681Z,1.38
2023-02-19T05:59:57.158Z,1.10
2023-02-19T06:02:58.657Z,1.00
2023-02-19T06:06:00.120Z,0.70
2023-02-19T06:09:01.578Z,3.35
2023-02-19T06:12:03.094Z,0.90
2023-02-19T06:15:05.499Z,1.30
2023-02-19T06:18:09.248Z,2.00
2023-02-19T06:21:11.689Z,4.07
2023-02-19T06:24:13.364Z,0.88
2023-02-19T06:27:14.947Z,1.30
2023-02-19T06:30:16.477Z,1.30
2023-02-19T06:33:17.963Z,1.03
2023-02-19T06:36:20.215Z,0.60
2023-02-19T06:39:21.675Z,0.52
2023-02-19T06:42:23.126Z,0.50
2023-02-19T06:45:24.563Z,0.60
2023-02-19T06:48:27.190Z,0.60
2023-02-19T06:51:29.674Z,0.60
2023-02-19T06:57:32.952Z,0.60
2023-02-19T07:00:34.758Z,0.68
2023-02-19T07:03:36.254Z,0.70
2023-02-19T07:06:37.740Z,0.50
2023-02-19T07:09:39.201Z,0.50
2023-02-19T07:12:40.742Z,0.52
2023-02-19T07:15:42.198Z,0.70
2023-02-19T07:18:43.698Z,0.85
2023-02-19T07:21:45.170Z,0.90
2023-02-19T07:24:47.937Z,0.90
2023-02-19T07:27:49.497Z,0.90
2023-02-19T07:30:51.069Z,0.90
2023-02-19T07:33:52.606Z,0.80
2023-02-19T07:36:54.066Z,0.70
2023-02-19T07:39:55.531Z,0.60
2023-02-19T07:42:59.260Z,0.70
2023-02-19T07:46:05.211Z,0.70
2023-02-19T07:49:07.190Z,0.70
2023-02-19T07:52:08.680Z,0.70
2023-02-19T07:55:11.359Z,0.70
2023-02-19T07:58:12.805Z,0.70
2023-02-19T08:01:44.222Z,0.60
2023-02-19T08:04:47.566Z,0.70
2023-02-19T08:07:49.024Z,0.60
2023-02-19T08:11:08.898Z,0.80
2023-02-19T08:14:10.437Z,0.73
2023-02-19T08:17:11.963Z,0.90
2023-02-19T08:20:13.455Z,0.70
2023-02-19T08:23:15.019Z,0.60
2023-02-19T08:26:16.486Z,0.80
2023-02-19T08:29:17.959Z,0.73
2023-02-19T08:32:19.429Z,1.10
2023-02-19T08:35:21.000Z,0.73
2023-02-19T08:38:22.471Z,0.87
2023-02-19T08:41:23.963Z,0.90
2023-02-19T08:44:25.452Z,1.00
2023-02-19T08:47:26.932Z,1.00
2023-02-19T08:50:28.870Z,1.48
2023-02-19T08:53:31.265Z,1.25
2023-02-19T08:56:32.722Z,0.95
2023-02-19T08:59:34.177Z,2.10
2023-02-19T09:02:35.920Z,1.45
2023-02-19T09:05:38.001Z,1.02
2023-02-19T09:08:39.539Z,0.95
2023-02-19T09:11:41.028Z,0.93
2023-02-19T09:14:42.494Z,0.80
2023-02-19T09:17:43.988Z,1.05
2023-02-19T09:20:45.482Z,0.90
2023-02-19T09:23:46.930Z,1.07
2023-02-19T09:26:52.247Z,1.60
2023-02-19T09:29:55.017Z,1.10
2023-02-19T09:32:56.684Z,1.40
2023-02-19T09:36:01.441Z,1.00
2023-02-19T09:39:04.474Z,0.90
2023-02-19T09:42:19.691Z,1.08
2023-02-19T09:45:25.311Z,0.95
2023-02-19T09:48:26.846Z,0.80
2023-02-19T09:51:28.302Z,1.05
2023-02-19T09:54:30.591Z,0.98
2023-02-19T09:57:32.818Z,1.80
2023-02-19T10:00:34.375Z,1.00
2023-02-19T10:03:41.415Z,1.60
2023-02-19T10:06:42.907Z,1.30
2023-02-19T10:09:46.319Z,1.13
2023-02-19T10:12:50.457Z,1.10
2023-02-19T10:15:53.904Z,1.40
2023-02-19T10:18:56.442Z,1.30
2023-02-19T10:21:58.338Z,1.20
2023-02-19T10:24:59.789Z,1.42
2023-02-19T10:28:01.721Z,1.23
2023-02-19T10:31:05.056Z,1.30
2023-02-19T10:34:07.558Z,1.55
2023-02-19T10:37:12.194Z,1.40
2023-02-19T10:40:26.615Z,1.33
2023-02-19T10:43:36.992Z,1.20
2023-02-19T10:46:46.196Z,3.60
2023-02-19T10:49:48.739Z,2.10
2023-02-19T10:52:54.643Z,1.38
2023-02-19T10:56:07.136Z,3.65
2023-02-19T11:02:22.779Z,2.55
2023-02-19T11:05:24.987Z,1.55
2023-02-19T11:08:26.452Z,1.30
2023-02-19T11:11:35.735Z,1.50
2023-02-19T11:14:37.213Z,1.75
2023-02-19T11:17:38.664Z,2.97
2023-02-19T11:21:00.118Z,2.05
2023-02-19T11:24:03.296Z,1.70
2023-02-19T11:27:05.850Z,1.63
2023-02-19T11:30:39.325Z,1.30
2023-02-19T11:33:45.762Z,1.77
2023-02-19T11:36:47.446Z,1.45
2023-02-19T11:39:50.117Z,1.27
2023-02-19T11:43:23.994Z,1.45
2023-02-19T11:46:43.827Z,1.50
2023-02-19T11:49:52.331Z,1.50
2023-02-19T11:53:13.711Z,1.30
2023-02-19T11:56:35.758Z,1.38
2023-02-19T11:59:49.471Z,1.40
2023-02-19T12:03:17.738Z,1.20
2023-02-19T12:06:28.530Z,1.40
2023-02-19T12:09:47.667Z,1.10
2023-02-19T12:12:57.058Z,1.40
2023-02-19T12:16:01.480Z,1.38
2023-02-19T12:19:02.805Z,1.27
2023-02-19T12:22:27.450Z,1.42
2023-02-19T12:25:37.430Z,1.60
2023-02-19T12:29:01.547Z,1.50
2023-02-19T12:32:21.358Z,1.27
2023-02-19T12:35:31.466Z,1.88
2023-02-19T12:38:40.113Z,1.88
2023-02-19T12:41:57.485Z,2.70
2023-02-19T12:45:01.758Z,1.52
2023-02-19T12:48:36.061Z,2.22
2023-02-19T12:51:48.861Z,1.38
2023-02-19T12:55:02.346Z,1.48
2023-02-19T12:58:05.021Z,1.20
2023-02-19T13:01:07.340Z,1.30
2023-02-19T13:07:19.702Z,1.73
2023-02-19T13:10:49.109Z,1.55
2023-02-19T13:13:59.709Z,1.50
2023-02-19T13:17:23.399Z,1.27
2023-02-19T13:20:38.962Z,1.40
2023-02-19T13:23:59.823Z,1.70
2023-02-19T13:27:36.876Z,1.40
2023-02-19T13:30:49.622Z,1.63
2023-02-19T13:33:58.496Z,1.52
2023-02-19T13:36:59.957Z,2.05
2023-02-19T13:40:39.349Z,1.80
2023-02-19T13:43:42.848Z,2.00
2023-02-19T13:46:45.321Z,1.42
2023-02-19T13:49:48.863Z,1.65
2023-02-19T13:52:51.418Z,1.52
2023-02-19T13:55:53.096Z,1.60
2023-02-19T13:59:28.042Z,1.60
2023-02-19T14:02:33.993Z,1.58
2023-02-19T14:06:06.360Z,1.40
2023-02-19T14:09:45.721Z,1.23
2023-02-19T14:12:47.188Z,1.50
2023-02-19T14:15:51.812Z,1.23
2023-02-19T14:18:55.349Z,2.70
2023-02-19T14:21:56.826Z,1.85
2023-02-19T14:24:58.250Z,1.70
2023-02-19T14:28:05.408Z,1.17
2023-02-19T14:31:19.592Z,2.20
2023-02-19T14:34:23.510Z,1.48
2023-02-19T14:37:25.233Z,1.70
2023-02-19T14:40:39.046Z,2.47
2023-02-19T14:43:40.519Z,1.67
2023-02-19T14:47:02.715Z,1.80
2023-02-19T14:50:08.905Z,1.77
2023-02-19T14:53:10.367Z,1.88
2023-02-19T14:56:28.812Z,1.83
2023-02-19T14:59:30.456Z,2.45
2023-02-19T15:02:32.110Z,1.70
2023-02-19T15:05:36.657Z,2.50
2023-02-19T15:08:41.959Z,2.20
2023-02-19T15:11:43.433Z,2.20
2023-02-19T15:14:45.875Z,2.17
2023-02-19T15:20:48.673Z,2.10
2023-02-19T15:23:50.355Z,1.60
2023-02-19T15:26:54.024Z,1.20
2023-02-19T15:29:55.536Z,2.60
2023-02-19T15:32:58.694Z,2.30
2023-02-19T15:36:01.798Z,2.65
2023-02-19T15:39:03.577Z,1.83
2023-02-19T15:42:05.974Z,1.92
2023-02-19T15:48:35.372Z,1.70
2023-02-19T15:51:55.373Z,1.90
2023-02-19T15:55:21.674Z,2.17
2023-02-19T15:58:33.617Z,2.20
2023-02-19T16:01:38.089Z,2.97
2023-02-19T16:04:40.669Z,1.88
2023-02-19T16:07:43.786Z,1.55
2023-02-19T16:11:05.182Z,1.63
2023-02-19T16:14:39.110Z,1.55
2023-02-19T16:17:43.699Z,2.47
2023-02-19T16:20:46.542Z,1.73
2023-02-19T16:23:49.538Z,2.05
2023-02-19T16:26:51.098Z,1.67
2023-02-19T16:29:52.541Z,1.80
2023-02-19T16:33:28.367Z,1.52
2023-02-19T16:36:29.798Z,1.58
2023-02-19T16:39:32.582Z,1.40
2023-02-19T16:42:58.173Z,1.38
2023-02-19T16:45:59.665Z,1.38
2023-02-19T16:49:01.212Z,1.40
2023-02-19T16:52:05.015Z,2.30
2023-02-19T16:55:12.552Z,1.70
2023-02-19T16:58:14.139Z,1.58
2023-02-19T17:01:15.752Z,1.60
2023-02-19T17:04:17.277Z,2.05
2023-02-19T17:07:18.829Z,1.40
2023-02-19T17:10:25.613Z,1.73
2023-02-19T17:13:27.088Z,1.77
2023-02-19T17:16:40.554Z,1.30
2023-02-19T17:19:42.150Z,1.58
2023-02-19T17:22:43.908Z,3.10
2023-02-19T17:25:45.390Z,4.72
2023-02-19T17:28:47.031Z,4.80
2023-02-19T17:31:48.638Z,4.97
2023-02-19T17:34:50.150Z,5.22
2023-02-19T17:37:53.397Z,6.00
2023-02-19T17:40:54.980Z,7.43
2023-02-19T17:43:56.439Z,6.50
2023-02-19T17:46:57.893Z,6.75
2023-02-19T17:50:01.144Z,5.03
2023-02-19T17:53:02.634Z,3.72
2023-02-19T17:56:04.263Z,5.90
2023-02-19T17:59:05.718Z,7.20
2023-02-19T18:02:07.242Z,5.10
2023-02-19T18:05:08.739Z,3.37
2023-02-19T18:08:10.197Z,4.47
2023-02-19T18:11:11.845Z,3.30
2023-02-19T18:14:13.485Z,3.38
2023-02-19T18:17:15.028Z,3.37
2023-02-19T18:20:18.403Z,2.27
2023-02-19T18:23:20.628Z,2.72
2023-02-19T18:26:22.140Z,2.20
2023-02-19T18:29:25.905Z,2.70
2023-02-19T18:32:27.470Z,2.45
2023-02-19T18:35:28.928Z,2.27
2023-02-19T18:38:30.380Z,2.72
2023-02-19T18:41:31.844Z,2.28
2023-02-19T18:44:33.305Z,2.88
2023-02-19T18:47:34.766Z,3.03
2023-02-19T18:50:36.249Z,3.13
2023-02-19T18:53:37.723Z,3.13
2023-02-19T18:56:45.826Z,3.17
2023-02-19T18:59:47.405Z,3.58
2023-02-19T19:02:51.102Z,4.27
2023-02-19T19:05:53.185Z,4.05
2023-02-19T19:08:54.647Z,5.18
2023-02-19T19:11:56.091Z,4.33
2023-02-19T19:14:57.660Z,3.95
2023-02-19T19:17:59.698Z,3.00
2023-02-19T19:21:03.393Z,2.92
2023-02-19T19:24:05.235Z,3.72
2023-02-19T19:27:06.819Z,4.63
2023-02-19T19:30:08.972Z,3.47
2023-02-19T19:33:12.145Z,4.32
2023-02-19T19:36:16.554Z,4.88
2023-02-19T19:39:18.013Z,3.75
2023-02-19T19:42:19.481Z,3.27
2023-02-19T19:45:21.040Z,2.73
2023-02-19T19:48:22.585Z,3.40
2023-02-19T19:51:24.166Z,2.70
2023-02-19T19:54:25.594Z,2.50
2023-02-19T19:57:27.064Z,3.22
2023-02-19T20:00:28.482Z,2.40
2023-02-19T20:03:30.846Z,2.60
2023-02-19T20:06:33.829Z,2.60
2023-02-19T20:09:35.283Z,3.20
2023-02-19T20:12:36.728Z,4.53
2023-02-19T20:15:38.257Z,2.65
2023-02-19T20:18:39.762Z,2.73
2023-02-19T20:21:44.781Z,3.77
2023-02-19T20:24:50.486Z,7.10
2023-02-19T20:27:52.079Z,6.53
2023-02-19T20:30:53.651Z,4.57
2023-02-19T20:33:55.423Z,3.75
2023-02-19T20:36:56.895Z,2.35
2023-02-19T20:39:58.667Z,3.17
2023-02-19T20:43:00.975Z,2.15
2023-02-19T20:46:02.504Z,2.83
2023-02-19T20:49:03.970Z,2.80
2023-02-19T20:52:06.334Z,2.80
2023-02-19T20:58:09.292Z,3.20
2023-02-19T21:01:11.726Z,3.10
2023-02-19T21:07:14.699Z,4.00
2023-02-19T21:10:16.225Z,3.30
2023-02-19T21:13:17.699Z,2.97
2023-02-19T21:16:19.189Z,3.37
2023-02-19T21:19:21.633Z,3.03
2023-02-19T21:25:24.422Z,3.75
2023-02-19T21:28:25.902Z,2.88
2023-02-19T21:31:38.650Z,2.90
2023-02-19T21:34:40.288Z,2.95
2023-02-19T21:37:43.258Z,3.50
2023-02-19T21:40:44.713Z,2.97
2023-02-19T21:43:46.165Z,2.63
2023-02-19T21:46:48.028Z,3.10
2023-02-19T21:49:49.843Z,3.38
2023-02-19T21:52:51.379Z,3.97
2023-02-19T21:55:58.695Z,3.10
2023-02-19T21:59:00.646Z,2.53
2023-02-19T22:02:02.181Z,2.23
2023-02-19T22:05:03.869Z,2.80
2023-02-19T22:08:05.375Z,3.60
2023-02-19T22:11:06.872Z,5.00
2023-02-19T22:14:08.391Z,4.87
2023-02-19T22:17:09.922Z,3.23
2023-02-19T22:20:11.500Z,3.03
2023-02-19T22:23:13.000Z,2.90
2023-02-19T22:26:27.183Z,2.33
2023-02-19T22:29:28.732Z,2.67
2023-02-19T22:32:30.310Z,2.67
2023-02-19T22:35:31.850Z,2.70
2023-02-19T22:38:33.364Z,3.53
2023-02-19T22:41:35.065Z,2.07
2023-02-19T22:44:36.745Z,2.30
2023-02-19T22:47:39.926Z,2.53
2023-02-19T22:50:41.471Z,2.00
2023-02-19T22:53:46.813Z,2.43
2023-02-19T22:56:48.314Z,2.50
2023-02-19T22:59:49.773Z,2.37
2023-02-19T23:02:51.334Z,2.38
2023-02-19T23:05:52.789Z,2.60
2023-02-19T23:08:55.048Z,2.70
2023-02-19T23:12:08.996Z,2.58
2023-02-19T23:15:11.050Z,3.00
2023-02-19T23:18:12.577Z,3.15
2023-02-19T23:21:14.035Z,2.70
2023-02-19T23:24:15.661Z,3.35
2023-02-19T23:27:17.146Z,3.03
2023-02-19T23:30:19.347Z,2.40
2023-02-19T23:33:20.839Z,2.58
2023-02-19T23:36:25.007Z,2.60
2023-02-19T23:39:27.625Z,2.67
2023-02-19T23:42:30.257Z,2.85
2023-02-19T23:45:32.346Z,2.80
2023-02-19T23:48:33.853Z,2.40
2023-02-19T23:51:35.351Z,2.60
2023-02-19T23:54:36.920Z,3.37
2023-02-19T23:57:38.513Z,2.93
